sensor_id;sensor_type;location;lat;lon;timestamp;temperature;humidity
50586;DHT22;36542;51.700;8.846;2023-04-25T00:00:40;5.20;99.90
50586;DHT22;36542;51.700;8.846;2023-04-25T00:03:06;5.20;99.90
50586;DHT22;36542;51.700;8.846;2023-04-25T00:05:31;5.30;99.90
50586;DHT22;36542;51.700;8.846;2023-04-25T00:07:57;5.30;99.90
50586;DHT22;36542;51.700;8.846;2023-04-25T00:10:23;5.30;99.90
50586;DHT22;36542;51.700;8.846;2023-04-25T00:12:49;5.30;99.90
50586;DHT22;36542;51.700;8.846;2023-04-25T00:15:14;5.30;99.90
50586;DHT22;36542;51.700;8.846;2023-04-25T00:17:40;5.30;99.90
50586;DHT22;36542;51.700;8.846;2023-04-25T00:20:07;5.40;99.90
50586;DHT22;36542;51.700;8.846;2023-04-25T00:22:35;5.40;99.90
50586;DHT22;36542;51.700;8.846;2023-04-25T00:25:03;5.40;99.90
50586;DHT22;36542;51.700;8.846;2023-04-25T00:27:29;5.50;99.90
50586;DHT22;36542;51.700;8.846;2023-04-25T00:29:54;5.50;99.90
50586;DHT22;36542;51.700;8.846;2023-04-25T00:32:20;5.50;99.90
50586;DHT22;36542;51.700;8.846;2023-04-25T00:34:45;5.50;99.90
50586;DHT22;36542;51.700;8.846;2023-04-25T00:37:11;5.60;99.90
50586;DHT22;36542;51.700;8.846;2023-04-25T00:39:37;5.50;99.90
50586;DHT22;36542;51.700;8.846;2023-04-25T00:42:02;5.50;99.90
50586;DHT22;36542;51.700;8.846;2023-04-25T00:44:29;5.50;99.90
50586;DHT22;36542;51.700;8.846;2023-04-25T00:46:55;5.50;99.90
50586;DHT22;36542;51.700;8.846;2023-04-25T00:49:21;5.50;99.90
50586;DHT22;36542;51.700;8.846;2023-04-25T00:51:47;5.50;99.90
50586;DHT22;36542;51.700;8.846;2023-04-25T00:54:13;5.50;99.90
50586;DHT22;36542;51.700;8.846;2023-04-25T00:56:39;5.50;99.90
50586;DHT22;36542;51.700;8.846;2023-04-25T00:59:05;5.50;99.90
50586;DHT22;36542;51.700;8.846;2023-04-25T01:01:31;5.50;99.90
50586;DHT22;36542;51.700;8.846;2023-04-25T01:03:58;5.50;99.90
50586;DHT22;36542;51.700;8.846;2023-04-25T01:06:24;5.50;99.90
50586;DHT22;36542;51.700;8.846;2023-04-25T01:08:51;5.40;99.90
50586;DHT22;36542;51.700;8.846;2023-04-25T01:11:16;5.50;99.90
50586;DHT22;36542;51.700;8.846;2023-04-25T01:13:42;5.50;99.90
50586;DHT22;36542;51.700;8.846;2023-04-25T01:16:08;5.50;99.90
50586;DHT22;36542;51.700;8.846;2023-04-25T01:18:33;5.50;99.90
50586;DHT22;36542;51.700;8.846;2023-04-25T01:21:07;5.50;99.90
50586;DHT22;36542;51.700;8.846;2023-04-25T01:23:34;5.50;99.90
50586;DHT22;36542;51.700;8.846;2023-04-25T01:26:00;5.50;99.90
50586;DHT22;36542;51.700;8.846;2023-04-25T01:28:27;5.50;99.90
50586;DHT22;36542;51.700;8.846;2023-04-25T01:30:53;5.50;99.90
50586;DHT22;36542;51.700;8.846;2023-04-25T01:33:19;5.40;99.90
50586;DHT22;36542;51.700;8.846;2023-04-25T01:35:46;5.40;99.90
50586;DHT22;36542;51.700;8.846;2023-04-25T01:38:12;5.40;99.90
50586;DHT22;36542;51.700;8.846;2023-04-25T01:40:39;5.30;99.90
50586;DHT22;36542;51.700;8.846;2023-04-25T01:43:06;5.30;99.90
50586;DHT22;36542;51.700;8.846;2023-04-25T01:45:31;5.20;99.90
50586;DHT22;36542;51.700;8.846;2023-04-25T01:47:58;5.20;99.90
50586;DHT22;36542;51.700;8.846;2023-04-25T01:50:25;5.20;99.90
50586;DHT22;36542;51.700;8.846;2023-04-25T01:52:50;5.20;99.90
50586;DHT22;36542;51.700;8.846;2023-04-25T01:55:16;5.20;99.90
50586;DHT22;36542;51.700;8.846;2023-04-25T01:57:41;5.10;99.90
50586;DHT22;36542;51.700;8.846;2023-04-25T02:00:09;5.10;99.90
50586;DHT22;36542;51.700;8.846;2023-04-25T02:02:35;5.10;99.90
50586;DHT22;36542;51.700;8.846;2023-04-25T02:05:01;5.10;99.90
50586;DHT22;36542;51.700;8.846;2023-04-25T02:07:26;5.10;99.90
50586;DHT22;36542;51.700;8.846;2023-04-25T02:09:52;5.00;99.90
50586;DHT22;36542;51.700;8.846;2023-04-25T02:12:17;5.00;99.90
50586;DHT22;36542;51.700;8.846;2023-04-25T02:14:43;5.10;99.90
50586;DHT22;36542;51.700;8.846;2023-04-25T02:17:08;5.00;99.90
50586;DHT22;36542;51.700;8.846;2023-04-25T02:19:34;5.00;99.90
50586;DHT22;36542;51.700;8.846;2023-04-25T02:21:59;5.10;99.90
50586;DHT22;36542;51.700;8.846;2023-04-25T02:24:25;5.10;99.90
50586;DHT22;36542;51.700;8.846;2023-04-25T02:26:53;5.00;99.90
50586;DHT22;36542;51.700;8.846;2023-04-25T02:29:18;5.00;99.90
50586;DHT22;36542;51.700;8.846;2023-04-25T02:31:44;5.00;99.90
50586;DHT22;36542;51.700;8.846;2023-04-25T02:34:09;5.00;99.90
50586;DHT22;36542;51.700;8.846;2023-04-25T02:36:35;5.00;99.90
50586;DHT22;36542;51.700;8.846;2023-04-25T02:39:01;5.00;99.90
50586;DHT22;36542;51.700;8.846;2023-04-25T02:41:27;4.90;99.90
50586;DHT22;36542;51.700;8.846;2023-04-25T02:43:52;5.00;99.90
50586;DHT22;36542;51.700;8.846;2023-04-25T02:46:18;5.00;99.90
50586;DHT22;36542;51.700;8.846;2023-04-25T02:48:43;5.00;99.90
50586;DHT22;36542;51.700;8.846;2023-04-25T02:51:09;4.90;99.90
50586;DHT22;36542;51.700;8.846;2023-04-25T02:53:34;4.90;99.90
50586;DHT22;36542;51.700;8.846;2023-04-25T02:56:00;4.90;99.90
50586;DHT22;36542;51.700;8.846;2023-04-25T02:58:26;4.90;99.90
50586;DHT22;36542;51.700;8.846;2023-04-25T03:00:51;4.90;99.90
50586;DHT22;36542;51.700;8.846;2023-04-25T03:03:17;4.90;99.90
50586;DHT22;36542;51.700;8.846;2023-04-25T03:05:43;4.90;99.90
50586;DHT22;36542;51.700;8.846;2023-04-25T03:08:09;4.90;99.90
50586;DHT22;36542;51.700;8.846;2023-04-25T03:10:35;5.00;99.90
50586;DHT22;36542;51.700;8.846;2023-04-25T03:13:00;5.00;99.90
50586;DHT22;36542;51.700;8.846;2023-04-25T03:15:26;5.00;99.90
50586;DHT22;36542;51.700;8.846;2023-04-25T03:17:51;5.00;99.90
50586;DHT22;36542;51.700;8.846;2023-04-25T03:20:17;4.90;99.90
50586;DHT22;36542;51.700;8.846;2023-04-25T03:22:42;4.90;99.90
50586;DHT22;36542;51.700;8.846;2023-04-25T03:25:08;5.00;99.90
50586;DHT22;36542;51.700;8.846;2023-04-25T03:27:33;5.00;99.90
50586;DHT22;36542;51.700;8.846;2023-04-25T03:29:59;4.90;99.90
50586;DHT22;36542;51.700;8.846;2023-04-25T03:32:24;5.00;99.90
50586;DHT22;36542;51.700;8.846;2023-04-25T03:34:50;4.90;99.90
50586;DHT22;36542;51.700;8.846;2023-04-25T03:37:16;4.90;99.90
50586;DHT22;36542;51.700;8.846;2023-04-25T03:39:41;4.90;99.90
50586;DHT22;36542;51.700;8.846;2023-04-25T03:42:07;4.90;99.90
50586;DHT22;36542;51.700;8.846;2023-04-25T03:44:32;4.90;99.90
50586;DHT22;36542;51.700;8.846;2023-04-25T03:46:58;5.00;99.90
50586;DHT22;36542;51.700;8.846;2023-04-25T03:49:24;5.00;99.90
50586;DHT22;36542;51.700;8.846;2023-04-25T03:51:50;4.90;99.90
50586;DHT22;36542;51.700;8.846;2023-04-25T03:54:15;5.00;99.90
50586;DHT22;36542;51.700;8.846;2023-04-25T03:56:41;4.90;99.90
50586;DHT22;36542;51.700;8.846;2023-04-25T03:59:06;4.90;99.90
50586;DHT22;36542;51.700;8.846;2023-04-25T04:01:33;5.00;99.90
50586;DHT22;36542;51.700;8.846;2023-04-25T04:03:58;4.90;99.90
50586;DHT22;36542;51.700;8.846;2023-04-25T04:06:24;5.00;99.90
50586;DHT22;36542;51.700;8.846;2023-04-25T04:08:49;4.90;99.90
50586;DHT22;36542;51.700;8.846;2023-04-25T04:11:15;4.90;99.90
50586;DHT22;36542;51.700;8.846;2023-04-25T04:13:40;4.80;99.90
50586;DHT22;36542;51.700;8.846;2023-04-25T04:16:06;4.80;99.90
50586;DHT22;36542;51.700;8.846;2023-04-25T04:18:31;4.70;99.90
50586;DHT22;36542;51.700;8.846;2023-04-25T04:20:58;4.60;99.90
50586;DHT22;36542;51.700;8.846;2023-04-25T04:23:24;4.60;99.90
50586;DHT22;36542;51.700;8.846;2023-04-25T04:25:49;4.60;99.90
50586;DHT22;36542;51.700;8.846;2023-04-25T04:28:15;4.50;99.90
50586;DHT22;36542;51.700;8.846;2023-04-25T04:30:41;4.50;99.90
50586;DHT22;36542;51.700;8.846;2023-04-25T04:33:08;4.50;99.90
50586;DHT22;36542;51.700;8.846;2023-04-25T04:35:33;4.50;99.90
50586;DHT22;36542;51.700;8.846;2023-04-25T04:37:59;4.60;99.90
50586;DHT22;36542;51.700;8.846;2023-04-25T04:40:24;4.60;99.90
50586;DHT22;36542;51.700;8.846;2023-04-25T04:42:50;4.60;99.90
50586;DHT22;36542;51.700;8.846;2023-04-25T04:45:16;4.60;99.90
50586;DHT22;36542;51.700;8.846;2023-04-25T04:47:42;4.60;99.90
50586;DHT22;36542;51.700;8.846;2023-04-25T04:50:09;4.60;99.90
50586;DHT22;36542;51.700;8.846;2023-04-25T04:52:35;4.70;99.90
50586;DHT22;36542;51.700;8.846;2023-04-25T04:55:02;4.70;99.90
50586;DHT22;36542;51.700;8.846;2023-04-25T04:57:28;4.70;99.90
50586;DHT22;36542;51.700;8.846;2023-04-25T04:59:53;4.70;99.90
50586;DHT22;36542;51.700;8.846;2023-04-25T05:02:19;4.70;99.90
50586;DHT22;36542;51.700;8.846;2023-04-25T05:04:45;4.80;99.90
50586;DHT22;36542;51.700;8.846;2023-04-25T05:07:10;4.80;99.90
50586;DHT22;36542;51.700;8.846;2023-04-25T05:09:36;4.90;99.90
50586;DHT22;36542;51.700;8.846;2023-04-25T05:12:02;4.90;99.90
50586;DHT22;36542;51.700;8.846;2023-04-25T05:14:27;4.90;99.90
50586;DHT22;36542;51.700;8.846;2023-04-25T05:16:53;4.90;99.90
50586;DHT22;36542;51.700;8.846;2023-04-25T05:19:18;4.90;99.90
50586;DHT22;36542;51.700;8.846;2023-04-25T05:21:44;4.90;99.90
50586;DHT22;36542;51.700;8.846;2023-04-25T05:24:09;4.90;99.90
50586;DHT22;36542;51.700;8.846;2023-04-25T05:26:35;4.90;99.90
50586;DHT22;36542;51.700;8.846;2023-04-25T05:29:00;5.00;99.90
50586;DHT22;36542;51.700;8.846;2023-04-25T05:31:26;4.90;99.90
50586;DHT22;36542;51.700;8.846;2023-04-25T05:33:51;4.90;99.90
50586;DHT22;36542;51.700;8.846;2023-04-25T05:36:18;4.90;99.90
50586;DHT22;36542;51.700;8.846;2023-04-25T05:38:44;4.90;99.90
50586;DHT22;36542;51.700;8.846;2023-04-25T05:41:09;4.90;99.90
50586;DHT22;36542;51.700;8.846;2023-04-25T05:43:35;4.80;99.90
50586;DHT22;36542;51.700;8.846;2023-04-25T05:46:00;4.90;99.90
50586;DHT22;36542;51.700;8.846;2023-04-25T05:48:26;4.90;99.90
50586;DHT22;36542;51.700;8.846;2023-04-25T05:50:51;4.90;99.90
50586;DHT22;36542;51.700;8.846;2023-04-25T05:53:18;4.90;99.90
50586;DHT22;36542;51.700;8.846;2023-04-25T05:55:43;4.90;99.90
50586;DHT22;36542;51.700;8.846;2023-04-25T05:58:09;4.90;99.90
50586;DHT22;36542;51.700;8.846;2023-04-25T06:00:34;4.90;99.90
50586;DHT22;36542;51.700;8.846;2023-04-25T06:03:00;5.00;99.90
50586;DHT22;36542;51.700;8.846;2023-04-25T06:05:26;5.00;99.90
50586;DHT22;36542;51.700;8.846;2023-04-25T06:07:51;5.00;99.90
50586;DHT22;36542;51.700;8.846;2023-04-25T06:10:17;5.10;99.90
50586;DHT22;36542;51.700;8.846;2023-04-25T06:12:43;5.10;99.90
50586;DHT22;36542;51.700;8.846;2023-04-25T06:15:09;5.10;99.90
50586;DHT22;36542;51.700;8.846;2023-04-25T06:17:35;5.20;99.90
50586;DHT22;36542;51.700;8.846;2023-04-25T06:20:01;5.20;99.90
50586;DHT22;36542;51.700;8.846;2023-04-25T06:22:27;5.20;99.90
50586;DHT22;36542;51.700;8.846;2023-04-25T06:24:52;5.30;99.90
50586;DHT22;36542;51.700;8.846;2023-04-25T06:27:18;5.40;99.90
50586;DHT22;36542;51.700;8.846;2023-04-25T06:29:43;5.60;99.90
50586;DHT22;36542;51.700;8.846;2023-04-25T06:32:09;5.70;99.90
50586;DHT22;36542;51.700;8.846;2023-04-25T06:34:34;5.60;99.90
50586;DHT22;36542;51.700;8.846;2023-04-25T06:37:00;5.60;99.90
50586;DHT22;36542;51.700;8.846;2023-04-25T06:39:25;5.60;99.90
50586;DHT22;36542;51.700;8.846;2023-04-25T06:41:51;5.60;99.90
50586;DHT22;36542;51.700;8.846;2023-04-25T06:44:16;5.60;99.90
50586;DHT22;36542;51.700;8.846;2023-04-25T06:46:42;5.70;99.90
50586;DHT22;36542;51.700;8.846;2023-04-25T06:49:07;5.70;99.90
50586;DHT22;36542;51.700;8.846;2023-04-25T06:51:33;5.80;99.90
50586;DHT22;36542;51.700;8.846;2023-04-25T06:53:58;5.90;99.90
50586;DHT22;36542;51.700;8.846;2023-04-25T06:56:24;5.90;99.90
50586;DHT22;36542;51.700;8.846;2023-04-25T06:58:50;6.00;99.90
50586;DHT22;36542;51.700;8.846;2023-04-25T07:01:15;6.00;99.90
50586;DHT22;36542;51.700;8.846;2023-04-25T07:03:41;6.00;99.90
50586;DHT22;36542;51.700;8.846;2023-04-25T07:06:06;6.20;99.90
50586;DHT22;36542;51.700;8.846;2023-04-25T07:08:32;6.30;99.90
50586;DHT22;36542;51.700;8.846;2023-04-25T07:10:58;6.30;99.90
50586;DHT22;36542;51.700;8.846;2023-04-25T07:13:23;6.30;99.90
50586;DHT22;36542;51.700;8.846;2023-04-25T07:15:49;6.30;99.90
50586;DHT22;36542;51.700;8.846;2023-04-25T07:18:14;6.50;99.90
50586;DHT22;36542;51.700;8.846;2023-04-25T07:20:40;6.50;99.90
50586;DHT22;36542;51.700;8.846;2023-04-25T07:23:06;6.40;99.90
50586;DHT22;36542;51.700;8.846;2023-04-25T07:25:31;6.10;99.90
50586;DHT22;36542;51.700;8.846;2023-04-25T07:27:57;6.10;99.90
50586;DHT22;36542;51.700;8.846;2023-04-25T07:30:22;6.20;99.90
50586;DHT22;36542;51.700;8.846;2023-04-25T07:32:49;6.10;99.90
50586;DHT22;36542;51.700;8.846;2023-04-25T07:35:15;6.30;99.90
50586;DHT22;36542;51.700;8.846;2023-04-25T07:37:41;6.40;99.90
50586;DHT22;36542;51.700;8.846;2023-04-25T07:40:07;6.50;99.90
50586;DHT22;36542;51.700;8.846;2023-04-25T07:42:34;6.60;99.90
50586;DHT22;36542;51.700;8.846;2023-04-25T07:45:00;6.40;99.90
50586;DHT22;36542;51.700;8.846;2023-04-25T07:47:26;6.50;99.90
50586;DHT22;36542;51.700;8.846;2023-04-25T07:49:51;6.60;99.90
50586;DHT22;36542;51.700;8.846;2023-04-25T07:52:17;6.90;99.90
50586;DHT22;36542;51.700;8.846;2023-04-25T07:54:43;6.80;99.90
50586;DHT22;36542;51.700;8.846;2023-04-25T07:57:08;7.20;99.90
50586;DHT22;36542;51.700;8.846;2023-04-25T07:59:34;7.40;99.90
50586;DHT22;36542;51.700;8.846;2023-04-25T08:02:00;7.20;99.90
50586;DHT22;36542;51.700;8.846;2023-04-25T08:04:26;7.10;99.90
50586;DHT22;36542;51.700;8.846;2023-04-25T08:06:52;6.80;99.90
50586;DHT22;36542;51.700;8.846;2023-04-25T08:09:20;6.40;99.90
50586;DHT22;36542;51.700;8.846;2023-04-25T08:11:46;6.50;99.90
50586;DHT22;36542;51.700;8.846;2023-04-25T08:14:12;6.60;99.90
50586;DHT22;36542;51.700;8.846;2023-04-25T08:16:38;6.80;99.90
50586;DHT22;36542;51.700;8.846;2023-04-25T08:19:04;7.00;99.90
50586;DHT22;36542;51.700;8.846;2023-04-25T08:21:30;7.10;99.90
50586;DHT22;36542;51.700;8.846;2023-04-25T08:23:56;7.20;99.90
50586;DHT22;36542;51.700;8.846;2023-04-25T08:26:23;7.10;99.90
50586;DHT22;36542;51.700;8.846;2023-04-25T08:28:49;7.10;99.90
50586;DHT22;36542;51.700;8.846;2023-04-25T08:31:15;7.10;99.90
50586;DHT22;36542;51.700;8.846;2023-04-25T08:33:40;7.30;99.90
50586;DHT22;36542;51.700;8.846;2023-04-25T08:36:06;7.60;99.90
50586;DHT22;36542;51.700;8.846;2023-04-25T08:38:31;7.90;99.90
50586;DHT22;36542;51.700;8.846;2023-04-25T08:40:59;7.90;99.90
50586;DHT22;36542;51.700;8.846;2023-04-25T08:43:25;7.90;99.90
50586;DHT22;36542;51.700;8.846;2023-04-25T08:45:52;8.00;99.90
50586;DHT22;36542;51.700;8.846;2023-04-25T08:48:19;8.50;99.90
50586;DHT22;36542;51.700;8.846;2023-04-25T08:50:51;8.80;99.90
50586;DHT22;36542;51.700;8.846;2023-04-25T08:53:22;8.80;99.90
50586;DHT22;36542;51.700;8.846;2023-04-25T08:55:50;8.50;99.90
50586;DHT22;36542;51.700;8.846;2023-04-25T08:58:16;8.40;99.90
50586;DHT22;36542;51.700;8.846;2023-04-25T09:00:43;8.50;99.90
50586;DHT22;36542;51.700;8.846;2023-04-25T09:03:08;8.70;99.90
50586;DHT22;36542;51.700;8.846;2023-04-25T09:05:36;9.10;99.90
50586;DHT22;36542;51.700;8.846;2023-04-25T09:08:02;9.20;99.90
50586;DHT22;36542;51.700;8.846;2023-04-25T09:10:28;9.30;99.90
50586;DHT22;36542;51.700;8.846;2023-04-25T09:13:08;9.30;99.90
50586;DHT22;36542;51.700;8.846;2023-04-25T09:15:48;8.90;99.90
50586;DHT22;36542;51.700;8.846;2023-04-25T09:18:22;8.90;99.90
50586;DHT22;36542;51.700;8.846;2023-04-25T09:20:49;8.70;99.90
50586;DHT22;36542;51.700;8.846;2023-04-25T09:23:14;8.30;99.90
50586;DHT22;36542;51.700;8.846;2023-04-25T09:25:40;8.50;99.90
50586;DHT22;36542;51.700;8.846;2023-04-25T09:28:07;8.90;99.90
50586;DHT22;36542;51.700;8.846;2023-04-25T09:30:35;9.00;99.90
50586;DHT22;36542;51.700;8.846;2023-04-25T09:33:09;9.60;99.90
50586;DHT22;36542;51.700;8.846;2023-04-25T09:35:40;9.80;99.90
50586;DHT22;36542;51.700;8.846;2023-04-25T09:38:10;9.40;99.90
50586;DHT22;36542;51.700;8.846;2023-04-25T09:40:42;9.30;99.90
50586;DHT22;36542;51.700;8.846;2023-04-25T09:43:09;9.30;99.90
50586;DHT22;36542;51.700;8.846;2023-04-25T09:45:41;9.10;99.90
50586;DHT22;36542;51.700;8.846;2023-04-25T09:48:11;8.80;99.90
50586;DHT22;36542;51.700;8.846;2023-04-25T09:50:37;8.20;99.90
50586;DHT22;36542;51.700;8.846;2023-04-25T09:53:04;8.30;99.90
50586;DHT22;36542;51.700;8.846;2023-04-25T09:55:34;8.00;99.90
50586;DHT22;36542;51.700;8.846;2023-04-25T09:58:04;8.00;99.90
50586;DHT22;36542;51.700;8.846;2023-04-25T10:00:31;8.20;99.90
50586;DHT22;36542;51.700;8.846;2023-04-25T10:02:57;8.70;99.90
50586;DHT22;36542;51.700;8.846;2023-04-25T10:05:25;9.50;99.90
50586;DHT22;36542;51.700;8.846;2023-04-25T10:07:53;9.70;99.90
50586;DHT22;36542;51.700;8.846;2023-04-25T10:10:19;9.70;99.90
50586;DHT22;36542;51.700;8.846;2023-04-25T10:12:45;10.60;99.90
50586;DHT22;36542;51.700;8.846;2023-04-25T10:15:12;10.60;99.90
50586;DHT22;36542;51.700;8.846;2023-04-25T10:17:39;9.70;99.90
50586;DHT22;36542;51.700;8.846;2023-04-25T10:20:07;9.10;99.90
50586;DHT22;36542;51.700;8.846;2023-04-25T10:22:38;8.90;99.90
50586;DHT22;36542;51.700;8.846;2023-04-25T10:25:05;8.50;99.90
50586;DHT22;36542;51.700;8.846;2023-04-25T10:27:32;8.40;99.90
50586;DHT22;36542;51.700;8.846;2023-04-25T10:30:09;8.50;99.90
50586;DHT22;36542;51.700;8.846;2023-04-25T10:32:36;8.40;99.90
50586;DHT22;36542;51.700;8.846;2023-04-25T10:35:14;8.50;99.90
50586;DHT22;36542;51.700;8.846;2023-04-25T10:40:22;8.50;99.90
50586;DHT22;36542;51.700;8.846;2023-04-25T10:42:48;8.70;99.90
50586;DHT22;36542;51.700;8.846;2023-04-25T10:45:14;9.10;99.90
50586;DHT22;36542;51.700;8.846;2023-04-25T10:47:48;9.70;99.90
50586;DHT22;36542;51.700;8.846;2023-04-25T10:50:17;10.10;99.90
50586;DHT22;36542;51.700;8.846;2023-04-25T10:52:43;10.20;99.90
50586;DHT22;36542;51.700;8.846;2023-04-25T10:55:09;10.00;99.90
50586;DHT22;36542;51.700;8.846;2023-04-25T10:57:43;9.90;99.90
50586;DHT22;36542;51.700;8.846;2023-04-25T11:00:12;9.30;99.90
50586;DHT22;36542;51.700;8.846;2023-04-25T11:03:02;8.40;99.90
50586;DHT22;36542;51.700;8.846;2023-04-25T11:05:35;8.30;99.90
50586;DHT22;36542;51.700;8.846;2023-04-25T11:08:02;8.30;99.90
50586;DHT22;36542;51.700;8.846;2023-04-25T11:10:29;8.00;99.90
50586;DHT22;36542;51.700;8.846;2023-04-25T11:12:56;8.20;99.90
50586;DHT22;36542;51.700;8.846;2023-04-25T11:15:22;8.10;99.90
50586;DHT22;36542;51.700;8.846;2023-04-25T11:17:47;7.80;99.90
50586;DHT22;36542;51.700;8.846;2023-04-25T11:20:13;7.90;99.90
50586;DHT22;36542;51.700;8.846;2023-04-25T11:22:39;8.10;99.90
50586;DHT22;36542;51.700;8.846;2023-04-25T11:25:10;8.60;99.90
50586;DHT22;36542;51.700;8.846;2023-04-25T11:27:55;8.70;99.90
50586;DHT22;36542;51.700;8.846;2023-04-25T11:30:23;8.80;99.90
50586;DHT22;36542;51.700;8.846;2023-04-25T11:32:49;8.70;99.90
50586;DHT22;36542;51.700;8.846;2023-04-25T11:35:15;8.80;99.90
50586;DHT22;36542;51.700;8.846;2023-04-25T11:37:41;9.10;99.90
50586;DHT22;36542;51.700;8.846;2023-04-25T11:40:08;9.10;99.90
50586;DHT22;36542;51.700;8.846;2023-04-25T11:42:37;9.30;99.90
50586;DHT22;36542;51.700;8.846;2023-04-25T11:45:03;9.80;99.90
50586;DHT22;36542;51.700;8.846;2023-04-25T11:47:30;10.00;99.90
50586;DHT22;36542;51.700;8.846;2023-04-25T11:50:04;10.40;99.90
50586;DHT22;36542;51.700;8.846;2023-04-25T11:52:44;10.90;99.90
50586;DHT22;36542;51.700;8.846;2023-04-25T11:55:16;10.60;99.90
50586;DHT22;36542;51.700;8.846;2023-04-25T11:57:43;9.80;99.90
50586;DHT22;36542;51.700;8.846;2023-04-25T12:00:20;9.40;99.90
50586;DHT22;36542;51.700;8.846;2023-04-25T12:02:47;9.90;99.90
50586;DHT22;36542;51.700;8.846;2023-04-25T12:05:14;10.20;99.90
50586;DHT22;36542;51.700;8.846;2023-04-25T12:07:41;10.40;99.90
50586;DHT22;36542;51.700;8.846;2023-04-25T12:10:12;10.10;99.90
50586;DHT22;36542;51.700;8.846;2023-04-25T12:12:41;9.80;99.90
50586;DHT22;36542;51.700;8.846;2023-04-25T12:15:13;9.60;99.90
50586;DHT22;36542;51.700;8.846;2023-04-25T12:17:46;9.40;99.90
50586;DHT22;36542;51.700;8.846;2023-04-25T12:20:20;9.30;99.90
50586;DHT22;36542;51.700;8.846;2023-04-25T12:22:47;9.20;99.90
50586;DHT22;36542;51.700;8.846;2023-04-25T12:25:13;8.90;99.90
50586;DHT22;36542;51.700;8.846;2023-04-25T12:28:18;8.60;99.90
50586;DHT22;36542;51.700;8.846;2023-04-25T12:31:04;8.50;99.90
50586;DHT22;36542;51.700;8.846;2023-04-25T12:33:34;8.60;99.90
50586;DHT22;36542;51.700;8.846;2023-04-25T12:36:01;9.00;99.90
50586;DHT22;36542;51.700;8.846;2023-04-25T12:38:36;8.90;99.90
50586;DHT22;36542;51.700;8.846;2023-04-25T12:41:02;8.70;99.90
50586;DHT22;36542;51.700;8.846;2023-04-25T12:43:27;8.60;99.90
50586;DHT22;36542;51.700;8.846;2023-04-25T12:45:54;8.80;99.90
50586;DHT22;36542;51.700;8.846;2023-04-25T12:48:20;8.90;99.90
50586;DHT22;36542;51.700;8.846;2023-04-25T12:50:47;9.20;99.90
50586;DHT22;36542;51.700;8.846;2023-04-25T12:53:20;9.20;99.90
50586;DHT22;36542;51.700;8.846;2023-04-25T12:55:46;9.50;99.90
50586;DHT22;36542;51.700;8.846;2023-04-25T12:58:13;9.80;99.90
50586;DHT22;36542;51.700;8.846;2023-04-25T13:00:39;9.80;99.90
50586;DHT22;36542;51.700;8.846;2023-04-25T13:03:04;9.80;99.90
50586;DHT22;36542;51.700;8.846;2023-04-25T13:05:30;9.80;99.90
50586;DHT22;36542;51.700;8.846;2023-04-25T13:07:56;9.70;99.90
50586;DHT22;36542;51.700;8.846;2023-04-25T13:10:21;10.30;99.90
50586;DHT22;36542;51.700;8.846;2023-04-25T13:12:47;10.60;99.90
50586;DHT22;36542;51.700;8.846;2023-04-25T13:15:12;10.00;99.90
50586;DHT22;36542;51.700;8.846;2023-04-25T13:17:38;9.70;99.90
50586;DHT22;36542;51.700;8.846;2023-04-25T13:20:05;9.00;99.90
50586;DHT22;36542;51.700;8.846;2023-04-25T13:22:34;8.80;99.90
50586;DHT22;36542;51.700;8.846;2023-04-25T13:25:02;8.80;99.90
50586;DHT22;36542;51.700;8.846;2023-04-25T13:27:27;8.90;99.90
50586;DHT22;36542;51.700;8.846;2023-04-25T13:29:53;9.10;99.90
50586;DHT22;36542;51.700;8.846;2023-04-25T13:32:18;9.50;99.90
50586;DHT22;36542;51.700;8.846;2023-04-25T13:34:44;9.60;99.90
50586;DHT22;36542;51.700;8.846;2023-04-25T13:37:09;10.10;99.90
50586;DHT22;36542;51.700;8.846;2023-04-25T13:39:35;10.20;99.90
50586;DHT22;36542;51.700;8.846;2023-04-25T13:42:01;10.50;99.90
50586;DHT22;36542;51.700;8.846;2023-04-25T13:44:27;10.40;99.90
50586;DHT22;36542;51.700;8.846;2023-04-25T13:46:52;9.90;99.90
50586;DHT22;36542;51.700;8.846;2023-04-25T13:49:18;9.70;99.90
50586;DHT22;36542;51.700;8.846;2023-04-25T13:51:43;10.20;99.90
50586;DHT22;36542;51.700;8.846;2023-04-25T13:54:09;10.40;99.90
50586;DHT22;36542;51.700;8.846;2023-04-25T13:56:34;10.90;99.90
50586;DHT22;36542;51.700;8.846;2023-04-25T13:59:00;10.90;99.90
50586;DHT22;36542;51.700;8.846;2023-04-25T14:01:25;11.20;99.90
50586;DHT22;36542;51.700;8.846;2023-04-25T14:03:52;11.20;99.90
50586;DHT22;36542;51.700;8.846;2023-04-25T14:06:18;11.00;99.90
50586;DHT22;36542;51.700;8.846;2023-04-25T14:08:48;10.60;99.90
50586;DHT22;36542;51.700;8.846;2023-04-25T14:11:14;10.30;99.90
50586;DHT22;36542;51.700;8.846;2023-04-25T14:13:39;10.20;99.90
50586;DHT22;36542;51.700;8.846;2023-04-25T14:16:05;10.50;99.90
50586;DHT22;36542;51.700;8.846;2023-04-25T14:18:30;10.60;99.90
50586;DHT22;36542;51.700;8.846;2023-04-25T14:20:56;10.60;99.90
50586;DHT22;36542;51.700;8.846;2023-04-25T14:23:21;10.40;99.90
50586;DHT22;36542;51.700;8.846;2023-04-25T14:25:47;10.30;99.90
50586;DHT22;36542;51.700;8.846;2023-04-25T14:28:12;10.40;99.90
50586;DHT22;36542;51.700;8.846;2023-04-25T14:30:38;10.30;99.90
50586;DHT22;36542;51.700;8.846;2023-04-25T14:33:03;10.20;99.90
50586;DHT22;36542;51.700;8.846;2023-04-25T14:35:29;9.90;99.90
50586;DHT22;36542;51.700;8.846;2023-04-25T14:37:54;9.20;99.90
50586;DHT22;36542;51.700;8.846;2023-04-25T14:40:20;8.60;99.90
50586;DHT22;36542;51.700;8.846;2023-04-25T14:42:48;8.30;99.90
50586;DHT22;36542;51.700;8.846;2023-04-25T14:45:13;8.00;99.90
50586;DHT22;36542;51.700;8.846;2023-04-25T14:47:39;8.00;99.90
50586;DHT22;36542;51.700;8.846;2023-04-25T14:50:06;7.90;99.90
50586;DHT22;36542;51.700;8.846;2023-04-25T14:52:32;7.90;99.90
50586;DHT22;36542;51.700;8.846;2023-04-25T14:54:57;8.00;99.90
50586;DHT22;36542;51.700;8.846;2023-04-25T14:57:25;8.10;99.90
50586;DHT22;36542;51.700;8.846;2023-04-25T14:59:51;8.20;99.90
50586;DHT22;36542;51.700;8.846;2023-04-25T15:02:16;8.40;99.90
50586;DHT22;36542;51.700;8.846;2023-04-25T15:04:42;8.30;99.90
50586;DHT22;36542;51.700;8.846;2023-04-25T15:07:08;8.30;99.90
50586;DHT22;36542;51.700;8.846;2023-04-25T15:09:34;8.10;99.90
50586;DHT22;36542;51.700;8.846;2023-04-25T15:11:59;7.80;99.90
50586;DHT22;36542;51.700;8.846;2023-04-25T15:14:25;7.60;99.90
50586;DHT22;36542;51.700;8.846;2023-04-25T15:16:51;7.40;99.90
50586;DHT22;36542;51.700;8.846;2023-04-25T15:19:16;7.30;99.90
50586;DHT22;36542;51.700;8.846;2023-04-25T15:21:42;7.30;99.90
50586;DHT22;36542;51.700;8.846;2023-04-25T15:24:07;7.30;99.90
50586;DHT22;36542;51.700;8.846;2023-04-25T15:26:33;7.20;99.90
50586;DHT22;36542;51.700;8.846;2023-04-25T15:28:58;7.10;99.90
50586;DHT22;36542;51.700;8.846;2023-04-25T15:31:24;7.00;99.90
50586;DHT22;36542;51.700;8.846;2023-04-25T15:33:50;7.00;99.90
50586;DHT22;36542;51.700;8.846;2023-04-25T15:36:16;6.90;99.90
50586;DHT22;36542;51.700;8.846;2023-04-25T15:38:42;6.80;99.90
50586;DHT22;36542;51.700;8.846;2023-04-25T15:41:08;6.70;99.90
50586;DHT22;36542;51.700;8.846;2023-04-25T15:43:34;6.60;99.90